sensor_id;sensor_type;location;lat;lon;timestamp;pressure;altitude;pressure_sealevel;temperature;humidity
60719;BME280;46567;51.660;5.824;2023-10-13T00:04:06;129470.0;;;190.6;100.0
60719;BME280;46567;51.660;5.824;2023-10-13T00:09:06;129460.0;;;190.6;100.0
60719;BME280;46567;51.660;5.824;2023-10-13T00:14:06;129460.0;;;190.6;100.0
60719;BME280;46567;51.660;5.824;2023-10-13T00:19:06;129440.0;;;190.6;100.0
60719;BME280;46567;51.660;5.824;2023-10-13T00:24:06;129440.0;;;190.6;100.0
60719;BME280;46567;51.660;5.824;2023-10-13T00:29:06;129450.0;;;190.6;100.0
60719;BME280;46567;51.660;5.824;2023-10-13T00:34:06;129430.0;;;190.6;100.0
60719;BME280;46567;51.660;5.824;2023-10-13T00:39:06;129430.0;;;190.6;100.0
60719;BME280;46567;51.660;5.824;2023-10-13T00:44:06;129430.0;;;190.6;100.0
60719;BME280;46567;51.660;5.824;2023-10-13T00:49:06;129410.0;;;190.6;100.0
60719;BME280;46567;51.660;5.824;2023-10-13T00:54:09;129410.0;;;190.6;100.0
60719;BME280;46567;51.660;5.824;2023-10-13T00:59:06;129410.0;;;190.6;100.0
60719;BME280;46567;51.660;5.824;2023-10-13T01:04:06;129410.0;;;190.6;100.0
60719;BME280;46567;51.660;5.824;2023-10-13T01:09:09;129420.0;;;190.6;100.0
60719;BME280;46567;51.660;5.824;2023-10-13T01:14:06;129410.0;;;190.6;100.0
60719;BME280;46567;51.660;5.824;2023-10-13T01:19:06;129410.0;;;190.6;100.0
60719;BME280;46567;51.660;5.824;2023-10-13T01:24:07;129400.0;;;190.6;100.0
60719;BME280;46567;51.660;5.824;2023-10-13T01:29:06;129390.0;;;190.6;100.0
60719;BME280;46567;51.660;5.824;2023-10-13T01:34:06;129390.0;;;190.6;100.0
60719;BME280;46567;51.660;5.824;2023-10-13T01:39:06;129390.0;;;190.6;100.0
60719;BME280;46567;51.660;5.824;2023-10-13T01:44:06;129380.0;;;190.6;100.0
60719;BME280;46567;51.660;5.824;2023-10-13T01:49:06;129380.0;;;190.6;100.0
60719;BME280;46567;51.660;5.824;2023-10-13T01:54:06;129370.0;;;190.6;100.0
60719;BME280;46567;51.660;5.824;2023-10-13T01:59:06;129350.0;;;190.6;100.0
60719;BME280;46567;51.660;5.824;2023-10-13T02:04:07;129330.0;;;190.6;100.0
60719;BME280;46567;51.660;5.824;2023-10-13T02:09:08;129330.0;;;190.6;100.0
60719;BME280;46567;51.660;5.824;2023-10-13T02:14:06;129330.0;;;190.6;100.0
60719;BME280;46567;51.660;5.824;2023-10-13T02:19:06;129320.0;;;190.6;100.0
60719;BME280;46567;51.660;5.824;2023-10-13T02:24:06;129300.0;;;190.6;100.0
60719;BME280;46567;51.660;5.824;2023-10-13T02:29:06;129290.0;;;190.6;100.0
60719;BME280;46567;51.660;5.824;2023-10-13T02:34:06;129300.0;;;190.6;100.0
60719;BME280;46567;51.660;5.824;2023-10-13T02:39:06;129310.0;;;190.6;100.0
60719;BME280;46567;51.660;5.824;2023-10-13T02:44:07;129300.0;;;190.6;100.0
60719;BME280;46567;51.660;5.824;2023-10-13T02:49:06;129290.0;;;190.6;100.0
60719;BME280;46567;51.660;5.824;2023-10-13T02:54:06;129270.0;;;190.6;100.0
60719;BME280;46567;51.660;5.824;2023-10-13T02:59:06;129260.0;;;190.6;100.0
60719;BME280;46567;51.660;5.824;2023-10-13T03:04:06;129250.0;;;190.6;100.0
60719;BME280;46567;51.660;5.824;2023-10-13T03:09:07;129230.0;;;190.6;100.0
60719;BME280;46567;51.660;5.824;2023-10-13T03:14:06;129210.0;;;190.6;100.0
60719;BME280;46567;51.660;5.824;2023-10-13T03:19:06;129190.0;;;190.6;100.0
60719;BME280;46567;51.660;5.824;2023-10-13T03:24:06;129180.0;;;190.6;100.0
60719;BME280;46567;51.660;5.824;2023-10-13T03:29:06;129160.0;;;190.6;100.0
60719;BME280;46567;51.660;5.824;2023-10-13T03:34:06;129150.0;;;190.6;100.0
60719;BME280;46567;51.660;5.824;2023-10-13T03:39:06;129120.0;;;190.6;100.0
60719;BME280;46567;51.660;5.824;2023-10-13T03:44:06;129120.0;;;190.6;100.0
60719;BME280;46567;51.660;5.824;2023-10-13T03:49:06;129110.0;;;190.6;100.0
60719;BME280;46567;51.660;5.824;2023-10-13T03:54:06;129080.0;;;190.6;100.0
60719;BME280;46567;51.660;5.824;2023-10-13T03:59:07;129060.0;;;190.6;100.0
60719;BME280;46567;51.660;5.824;2023-10-13T04:04:06;129060.0;;;190.6;100.0
60719;BME280;46567;51.660;5.824;2023-10-13T04:09:06;129030.0;;;190.6;100.0
60719;BME280;46567;51.660;5.824;2023-10-13T04:14:06;129010.0;;;190.6;100.0
60719;BME280;46567;51.660;5.824;2023-10-13T04:19:06;128980.0;;;190.6;100.0
60719;BME280;46567;51.660;5.824;2023-10-13T04:24:07;128960.0;;;190.6;100.0
60719;BME280;46567;51.660;5.824;2023-10-13T04:29:06;128940.0;;;190.6;100.0
60719;BME280;46567;51.660;5.824;2023-10-13T04:34:06;128920.0;;;190.6;100.0
60719;BME280;46567;51.660;5.824;2023-10-13T04:44:06;128890.0;;;190.6;100.0
60719;BME280;46567;51.660;5.824;2023-10-13T04:49:06;128890.0;;;190.6;100.0
60719;BME280;46567;51.660;5.824;2023-10-13T04:54:06;128880.0;;;190.6;100.0
60719;BME280;46567;51.660;5.824;2023-10-13T04:59:06;128860.0;;;190.6;100.0
60719;BME280;46567;51.660;5.824;2023-10-13T05:04:06;128850.0;;;190.6;100.0
60719;BME280;46567;51.660;5.824;2023-10-13T05:09:06;128850.0;;;190.6;100.0
60719;BME280;46567;51.660;5.824;2023-10-13T05:14:06;128840.0;;;190.6;100.0
60719;BME280;46567;51.660;5.824;2023-10-13T05:19:06;128830.0;;;190.6;100.0
60719;BME280;46567;51.660;5.824;2023-10-13T05:24:06;128800.0;;;190.6;100.0
60719;BME280;46567;51.660;5.824;2023-10-13T05:29:06;128800.0;;;190.6;100.0
60719;BME280;46567;51.660;5.824;2023-10-13T05:34:06;128790.0;;;190.6;100.0
60719;BME280;46567;51.660;5.824;2023-10-13T05:39:06;128730.0;;;190.6;100.0
60719;BME280;46567;51.660;5.824;2023-10-13T05:44:06;128720.0;;;190.6;100.0
60719;BME280;46567;51.660;5.824;2023-10-13T05:49:08;128710.0;;;190.6;100.0
60719;BME280;46567;51.660;5.824;2023-10-13T05:54:06;128720.0;;;190.6;100.0
60719;BME280;46567;51.660;5.824;2023-10-13T05:59:06;128730.0;;;190.6;100.0
60719;BME280;46567;51.660;5.824;2023-10-13T06:04:06;128710.0;;;190.6;100.0
60719;BME280;46567;51.660;5.824;2023-10-13T06:09:06;128730.0;;;190.6;100.0
60719;BME280;46567;51.660;5.824;2023-10-13T06:14:06;128710.0;;;190.6;100.0
60719;BME280;46567;51.660;5.824;2023-10-13T06:19:06;128710.0;;;190.6;100.0
60719;BME280;46567;51.660;5.824;2023-10-13T06:24:06;128700.0;;;190.6;100.0
60719;BME280;46567;51.660;5.824;2023-10-13T06:29:06;128700.0;;;190.6;100.0
60719;BME280;46567;51.660;5.824;2023-10-13T06:34:06;128700.0;;;190.6;100.0
60719;BME280;46567;51.660;5.824;2023-10-13T06:39:06;128690.0;;;190.6;100.0
60719;BME280;46567;51.660;5.824;2023-10-13T06:44:06;128670.0;;;190.6;100.0
60719;BME280;46567;51.660;5.824;2023-10-13T06:49:06;128670.0;;;190.6;100.0
60719;BME280;46567;51.660;5.824;2023-10-13T06:54:06;128640.0;;;190.6;100.0
60719;BME280;46567;51.660;5.824;2023-10-13T06:59:06;128650.0;;;190.6;100.0
60719;BME280;46567;51.660;5.824;2023-10-13T07:04:06;128640.0;;;190.6;100.0
60719;BME280;46567;51.660;5.824;2023-10-13T07:09:06;128620.0;;;190.6;100.0
60719;BME280;46567;51.660;5.824;2023-10-13T07:14:06;128620.0;;;190.6;100.0
60719;BME280;46567;51.660;5.824;2023-10-13T07:19:06;128620.0;;;190.6;100.0
60719;BME280;46567;51.660;5.824;2023-10-13T07:24:06;128600.0;;;190.6;100.0
60719;BME280;46567;51.660;5.824;2023-10-13T07:29:06;128580.0;;;190.6;100.0
60719;BME280;46567;51.660;5.824;2023-10-13T07:34:06;128560.0;;;190.6;100.0
60719;BME280;46567;51.660;5.824;2023-10-13T07:39:06;128550.0;;;190.6;100.0
60719;BME280;46567;51.660;5.824;2023-10-13T07:44:06;128550.0;;;190.6;100.0
60719;BME280;46567;51.660;5.824;2023-10-13T07:49:06;128530.0;;;190.6;100.0
60719;BME280;46567;51.660;5.824;2023-10-13T07:54:06;128520.0;;;190.6;100.0
60719;BME280;46567;51.660;5.824;2023-10-13T07:59:06;128510.0;;;190.6;100.0
60719;BME280;46567;51.660;5.824;2023-10-13T08:04:06;128480.0;;;190.6;100.0
60719;BME280;46567;51.660;5.824;2023-10-13T08:14:06;128400.0;;;190.6;100.0
60719;BME280;46567;51.660;5.824;2023-10-13T08:19:06;128380.0;;;190.6;100.0
60719;BME280;46567;51.660;5.824;2023-10-13T08:24:06;128370.0;;;190.6;100.0
60719;BME280;46567;51.660;5.824;2023-10-13T08:29:06;128350.0;;;190.6;100.0
60719;BME280;46567;51.660;5.824;2023-10-13T08:34:06;128300.0;;;190.6;100.0
60719;BME280;46567;51.660;5.824;2023-10-13T08:39:06;128280.0;;;190.6;100.0
60719;BME280;46567;51.660;5.824;2023-10-13T08:44:08;128240.0;;;190.6;100.0
60719;BME280;46567;51.660;5.824;2023-10-13T08:49:07;128200.0;;;190.6;100.0
60719;BME280;46567;51.660;5.824;2023-10-13T08:54:07;128140.0;;;190.6;100.0
60719;BME280;46567;51.660;5.824;2023-10-13T08:59:06;128110.0;;;190.6;100.0
60719;BME280;46567;51.660;5.824;2023-10-13T09:04:08;128070.0;;;190.6;100.0
60719;BME280;46567;51.660;5.824;2023-10-13T09:09:06;128040.0;;;190.6;100.0
60719;BME280;46567;51.660;5.824;2023-10-13T09:14:12;128050.0;;;190.6;100.0
60719;BME280;46567;51.660;5.824;2023-10-13T09:19:06;128040.0;;;190.6;100.0
60719;BME280;46567;51.660;5.824;2023-10-13T09:24:08;128010.0;;;190.6;100.0
60719;BME280;46567;51.660;5.824;2023-10-13T09:29:13;127990.0;;;190.6;100.0
60719;BME280;46567;51.660;5.824;2023-10-13T09:34:06;128010.0;;;190.6;100.0
60719;BME280;46567;51.660;5.824;2023-10-13T09:39:06;128000.0;;;190.6;100.0
60719;BME280;46567;51.660;5.824;2023-10-13T09:44:06;127990.0;;;190.6;100.0
60719;BME280;46567;51.660;5.824;2023-10-13T09:49:13;127990.0;;;190.6;100.0
60719;BME280;46567;51.660;5.824;2023-10-13T09:54:22;127970.0;;;190.6;100.0
60719;BME280;46567;51.660;5.824;2023-10-13T09:59:14;127940.0;;;190.6;100.0
60719;BME280;46567;51.660;5.824;2023-10-13T10:04:14;127920.0;;;190.6;100.0
60719;BME280;46567;51.660;5.824;2023-10-13T10:09:08;127910.0;;;190.6;100.0
60719;BME280;46567;51.660;5.824;2023-10-13T10:16:17;127890.0;;;190.6;100.0
60719;BME280;46567;51.660;5.824;2023-10-13T10:19:06;127860.0;;;190.6;100.0
60719;BME280;46567;51.660;5.824;2023-10-13T10:24:14;127820.0;;;190.6;100.0
60719;BME280;46567;51.660;5.824;2023-10-13T10:29:11;127810.0;;;190.6;100.0
60719;BME280;46567;51.660;5.824;2023-10-13T10:34:10;127800.0;;;190.6;100.0
60719;BME280;46567;51.660;5.824;2023-10-13T10:39:06;127790.0;;;190.6;100.0
60719;BME280;46567;51.660;5.824;2023-10-13T10:44:09;127780.0;;;190.6;100.0
60719;BME280;46567;51.660;5.824;2023-10-13T10:49:06;127780.0;;;190.6;100.0
60719;BME280;46567;51.660;5.824;2023-10-13T10:54:06;127780.0;;;190.6;100.0
60719;BME280;46567;51.660;5.824;2023-10-13T10:59:07;127760.0;;;190.6;100.0
60719;BME280;46567;51.660;5.824;2023-10-13T11:04:07;127760.0;;;190.6;100.0
60719;BME280;46567;51.660;5.824;2023-10-13T11:09:06;127710.0;;;190.6;100.0
60719;BME280;46567;51.660;5.824;2023-10-13T11:14:06;127710.0;;;190.6;100.0
60719;BME280;46567;51.660;5.824;2023-10-13T11:19:06;127680.0;;;190.6;100.0
60719;BME280;46567;51.660;5.824;2023-10-13T11:24:06;127610.0;;;190.6;100.0
60719;BME280;46567;51.660;5.824;2023-10-13T11:29:06;127580.0;;;190.6;100.0
60719;BME280;46567;51.660;5.824;2023-10-13T11:34:06;127540.0;;;190.6;100.0
60719;BME280;46567;51.660;5.824;2023-10-13T11:39:06;127530.0;;;190.6;100.0
60719;BME280;46567;51.660;5.824;2023-10-13T11:44:06;127510.0;;;190.6;99.5
60719;BME280;46567;51.660;5.824;2023-10-13T11:49:08;127460.0;;;190.6;99.0
60719;BME280;46567;51.660;5.824;2023-10-13T11:54:06;127440.0;;;190.6;97.5
60719;BME280;46567;51.660;5.824;2023-10-13T11:59:06;127410.0;;;190.6;96.5
60719;BME280;46567;51.660;5.824;2023-10-13T12:04:06;127380.0;;;190.6;95.5
60719;BME280;46567;51.660;5.824;2023-10-13T12:09:09;127370.0;;;190.6;94.0
60719;BME280;46567;51.660;5.824;2023-10-13T12:14:06;127350.0;;;190.6;93.5
60719;BME280;46567;51.660;5.824;2023-10-13T12:19:06;127330.0;;;190.6;92.5
60719;BME280;46567;51.660;5.824;2023-10-13T12:24:06;127320.0;;;190.6;91.5
60719;BME280;46567;51.660;5.824;2023-10-13T12:29:06;127300.0;;;190.6;92.0
60719;BME280;46567;51.660;5.824;2023-10-13T12:34:06;127260.0;;;190.6;91.0
60719;BME280;46567;51.660;5.824;2023-10-13T12:39:06;127240.0;;;190.6;90.5
60719;BME280;46567;51.660;5.824;2023-10-13T12:44:06;127210.0;;;190.6;90.0
60719;BME280;46567;51.660;5.824;2023-10-13T12:49:06;127200.0;;;190.6;89.5
60719;BME280;46567;51.660;5.824;2023-10-13T12:54:07;127190.0;;;190.6;88.5
60719;BME280;46567;51.660;5.824;2023-10-13T12:59:06;127220.0;;;190.6;87.5
60719;BME280;46567;51.660;5.824;2023-10-13T13:04:06;127210.0;;;190.6;88.0
60719;BME280;46567;51.660;5.824;2023-10-13T13:09:06;127210.0;;;190.6;88.0
60719;BME280;46567;51.660;5.824;2023-10-13T13:14:06;127210.0;;;190.6;87.0
60719;BME280;46567;51.660;5.824;2023-10-13T13:19:06;127210.0;;;190.6;85.5
60719;BME280;46567;51.660;5.824;2023-10-13T13:24:07;127200.0;;;190.6;85.5
60719;BME280;46567;51.660;5.824;2023-10-13T13:29:06;127190.0;;;190.6;86.0
60719;BME280;46567;51.660;5.824;2023-10-13T13:34:06;127210.0;;;190.6;83.5
60719;BME280;46567;51.660;5.824;2023-10-13T13:39:06;127210.0;;;190.6;84.0
60719;BME280;46567;51.660;5.824;2023-10-13T13:44:06;127220.0;;;190.6;84.0
60719;BME280;46567;51.660;5.824;2023-10-13T13:49:06;127210.0;;;190.6;83.0
60719;BME280;46567;51.660;5.824;2023-10-13T13:54:06;127210.0;;;190.6;82.5
60719;BME280;46567;51.660;5.824;2023-10-13T13:59:06;127240.0;;;190.6;82.5
60719;BME280;46567;51.660;5.824;2023-10-13T14:04:06;127240.0;;;190.6;82.5
60719;BME280;46567;51.660;5.824;2023-10-13T14:09:06;127240.0;;;190.6;82.0
60719;BME280;46567;51.660;5.824;2023-10-13T14:14:08;127250.0;;;190.6;82.5
60719;BME280;46567;51.660;5.824;2023-10-13T14:19:06;127270.0;;;190.6;82.0
60719;BME280;46567;51.660;5.824;2023-10-13T14:24:06;127260.0;;;190.6;81.5
60719;BME280;46567;51.660;5.824;2023-10-13T14:29:06;127290.0;;;190.6;82.0
60719;BME280;46567;51.660;5.824;2023-10-13T14:34:07;127300.0;;;190.6;82.0
60719;BME280;46567;51.660;5.824;2023-10-13T14:39:07;127290.0;;;190.6;82.0
60719;BME280;46567;51.660;5.824;2023-10-13T14:44:06;127290.0;;;190.6;81.5
60719;BME280;46567;51.660;5.824;2023-10-13T14:49:06;127290.0;;;190.6;81.5
60719;BME280;46567;51.660;5.824;2023-10-13T14:54:06;127300.0;;;190.6;80.5
60719;BME280;46567;51.660;5.824;2023-10-13T14:59:06;127290.0;;;190.6;80.5
60719;BME280;46567;51.660;5.824;2023-10-13T15:04:06;127310.0;;;190.6;80.0
60719;BME280;46567;51.660;5.824;2023-10-13T15:09:06;127330.0;;;190.6;80.5
60719;BME280;46567;51.660;5.824;2023-10-13T15:14:06;127320.0;;;190.6;80.5
60719;BME280;46567;51.660;5.824;2023-10-13T15:19:06;127310.0;;;190.6;81.0
60719;BME280;46567;51.660;5.824;2023-10-13T15:24:07;127320.0;;;190.6;81.0
60719;BME280;46567;51.660;5.824;2023-10-13T15:29:06;127350.0;;;190.6;81.0
60719;BME280;46567;51.660;5.824;2023-10-13T15:34:12;127350.0;;;190.6;82.0
60719;BME280;46567;51.660;5.824;2023-10-13T15:39:06;127350.0;;;190.6;83.0
60719;BME280;46567;51.660;5.824;2023-10-13T15:44:11;127400.0;;;190.6;84.0
60719;BME280;46567;51.660;5.824;2023-10-13T15:49:06;127440.0;;;190.6;85.0
60719;BME280;46567;51.660;5.824;2023-10-13T15:54:06;127470.0;;;190.6;86.0
60719;BME280;46567;51.660;5.824;2023-10-13T15:59:06;127500.0;;;190.6;86.5
60719;BME280;46567;51.660;5.824;2023-10-13T16:04:07;127510.0;;;190.6;87.5
60719;BME280;46567;51.660;5.824;2023-10-13T16:09:07;127530.0;;;190.6;88.5
60719;BME280;46567;51.660;5.824;2023-10-13T16:14:06;127540.0;;;190.6;89.5
60719;BME280;46567;51.660;5.824;2023-10-13T16:19:06;127560.0;;;190.6;90.5
60719;BME280;46567;51.660;5.824;2023-10-13T16:24:06;127580.0;;;190.6;91.0
60719;BME280;46567;51.660;5.824;2023-10-13T16:29:06;127600.0;;;190.6;92.0
60719;BME280;46567;51.660;5.824;2023-10-13T16:34:06;127610.0;;;190.6;93.0
60719;BME280;46567;51.660;5.824;2023-10-13T16:39:06;127620.0;;;190.6;93.5
60719;BME280;46567;51.660;5.824;2023-10-13T16:44:06;127630.0;;;190.6;93.5
60719;BME280;46567;51.660;5.824;2023-10-13T16:49:07;127630.0;;;190.6;93.5
60719;BME280;46567;51.660;5.824;2023-10-13T16:54:06;127610.0;;;190.6;93.5
60719;BME280;46567;51.660;5.824;2023-10-13T16:59:06;127610.0;;;190.6;93.5
60719;BME280;46567;51.660;5.824;2023-10-13T17:04:06;127620.0;;;190.6;93.5
60719;BME280;46567;51.660;5.824;2023-10-13T17:09:06;127630.0;;;190.6;93.0
60719;BME280;46567;51.660;5.824;2023-10-13T17:14:06;127660.0;;;190.6;93.0
60719;BME280;46567;51.660;5.824;2023-10-13T17:19:06;127700.0;;;190.6;94.0
60719;BME280;46567;51.660;5.824;2023-10-13T17:24:07;127740.0;;;190.6;96.0
60719;BME280;46567;51.660;5.824;2023-10-13T17:29:06;127790.0;;;190.6;98.0
60719;BME280;46567;51.660;5.824;2023-10-13T17:34:06;127840.0;;;190.6;100.0
60719;BME280;46567;51.660;5.824;2023-10-13T17:39:06;127850.0;;;190.6;100.0
60719;BME280;46567;51.660;5.824;2023-10-13T17:44:06;127860.0;;;190.6;100.0
60719;BME280;46567;51.660;5.824;2023-10-13T17:49:06;127890.0;;;190.6;100.0
60719;BME280;46567;51.660;5.824;2023-10-13T17:54:06;127870.0;;;190.6;100.0
60719;BME280;46567;51.660;5.824;2023-10-13T17:59:06;127890.0;;;190.6;100.0
60719;BME280;46567;51.660;5.824;2023-10-13T18:04:06;127890.0;;;190.6;100.0
60719;BME280;46567;51.660;5.824;2023-10-13T18:09:06;127900.0;;;190.6;100.0
60719;BME280;46567;51.660;5.824;2023-10-13T18:14:06;127910.0;;;190.6;100.0
60719;BME280;46567;51.660;5.824;2023-10-13T18:19:06;127900.0;;;190.6;100.0
60719;BME280;46567;51.660;5.824;2023-10-13T18:24:06;127910.0;;;190.6;100.0
60719;BME280;46567;51.660;5.824;2023-10-13T18:29:06;127890.0;;;190.6;100.0
60719;BME280;46567;51.660;5.824;2023-10-13T18:34:06;127910.0;;;190.6;100.0
60719;BME280;46567;51.660;5.824;2023-10-13T18:39:06;127920.0;;;190.6;100.0
60719;BME280;46567;51.660;5.824;2023-10-13T18:49:06;127930.0;;;190.6;100.0
60719;BME280;46567;51.660;5.824;2023-10-13T18:54:06;127970.0;;;190.6;100.0
60719;BME280;46567;51.660;5.824;2023-10-13T18:59:06;127970.0;;;190.6;100.0
60719;BME280;46567;51.660;5.824;2023-10-13T19:04:06;128000.0;;;190.6;100.0
60719;BME280;46567;51.660;5.824;2023-10-13T19:09:07;128000.0;;;190.6;100.0
60719;BME280;46567;51.660;5.824;2023-10-13T19:14:07;127970.0;;;190.6;100.0
60719;BME280;46567;51.660;5.824;2023-10-13T19:19:06;127940.0;;;190.6;100.0
60719;BME280;46567;51.660;5.824;2023-10-13T19:24:06;127940.0;;;190.6;100.0
60719;BME280;46567;51.660;5.824;2023-10-13T19:29:06;127940.0;;;190.6;100.0
60719;BME280;46567;51.660;5.824;2023-10-13T19:34:07;127930.0;;;190.6;100.0
60719;BME280;46567;51.660;5.824;2023-10-13T19:39:06;127940.0;;;190.6;100.0
60719;BME280;46567;51.660;5.824;2023-10-13T19:44:06;127950.0;;;190.6;100.0
60719;BME280;46567;51.660;5.824;2023-10-13T19:49:06;127940.0;;;190.6;100.0
60719;BME280;46567;51.660;5.824;2023-10-13T19:54:06;127910.0;;;190.6;100.0
60719;BME280;46567;51.660;5.824;2023-10-13T19:59:06;127900.0;;;190.6;100.0
60719;BME280;46567;51.660;5.824;2023-10-13T20:04:06;127910.0;;;190.6;100.0
60719;BME280;46567;51.660;5.824;2023-10-13T20:09:06;127880.0;;;190.6;100.0
60719;BME280;46567;51.660;5.824;2023-10-13T20:14:06;127870.0;;;190.6;100.0
60719;BME280;46567;51.660;5.824;2023-10-13T20:19:06;127870.0;;;190.6;100.0
60719;BME280;46567;51.660;5.824;2023-10-13T20:24:06;127880.0;;;190.6;100.0
60719;BME280;46567;51.660;5.824;2023-10-13T20:29:06;127870.0;;;190.6;100.0
60719;BME280;46567;51.660;5.824;2023-10-13T20:34:06;127880.0;;;190.6;100.0
60719;BME280;46567;51.660;5.824;2023-10-13T20:39:06;127870.0;;;190.6;100.0
60719;BME280;46567;51.660;5.824;2023-10-13T20:44:06;127860.0;;;190.6;100.0
60719;BME280;46567;51.660;5.824;2023-10-13T20:49:06;127850.0;;;190.6;100.0
60719;BME280;46567;51.660;5.824;2023-10-13T20:54:06;127850.0;;;190.6;100.0
60719;BME280;46567;51.660;5.824;2023-10-13T20:59:07;127850.0;;;190.6;100.0
60719;BME280;46567;51.660;5.824;2023-10-13T21:04:06;127860.0;;;190.6;100.0
60719;BME280;46567;51.660;5.824;2023-10-13T21:09:06;127850.0;;;190.6;100.0
60719;BME280;46567;51.660;5.824;2023-10-13T21:14:06;127840.0;;;190.6;100.0
60719;BME280;46567;51.660;5.824;2023-10-13T21:19:07;127820.0;;;190.6;100.0
60719;BME280;46567;51.660;5.824;2023-10-13T21:24:06;127800.0;;;190.6;100.0
60719;BME280;46567;51.660;5.824;2023-10-13T21:29:06;127790.0;;;190.6;100.0
60719;BME280;46567;51.660;5.824;2023-10-13T21:34:06;127790.0;;;190.6;100.0
60719;BME280;46567;51.660;5.824;2023-10-13T21:39:06;127790.0;;;190.6;100.0
60719;BME280;46567;51.660;5.824;2023-10-13T21:44:06;127770.0;;;190.6;100.0
60719;BME280;46567;51.660;5.824;2023-10-13T21:49:06;127740.0;;;190.6;100.0
60719;BME280;46567;51.660;5.824;2023-10-13T21:54:06;127730.0;;;190.6;100.0
60719;BME280;46567;51.660;5.824;2023-10-13T21:59:06;127740.0;;;190.6;100.0
60719;BME280;46567;51.660;5.824;2023-10-13T22:04:06;127740.0;;;190.6;100.0
60719;BME280;46567;51.660;5.824;2023-10-13T22:09:07;127730.0;;;190.6;100.0
60719;BME280;46567;51.660;5.824;2023-10-13T22:14:07;127710.0;;;190.6;100.0
60719;BME280;46567;51.660;5.824;2023-10-13T22:19:06;127680.0;;;190.6;100.0
60719;BME280;46567;51.660;5.824;2023-10-13T22:29:06;127730.0;;;190.6;100.0
60719;BME280;46567;51.660;5.824;2023-10-13T22:34:06;127760.0;;;190.6;100.0
60719;BME280;46567;51.660;5.824;2023-10-13T22:39:06;127800.0;;;190.6;100.0
60719;BME280;46567;51.660;5.824;2023-10-13T22:44:06;127830.0;;;190.6;100.0
60719;BME280;46567;51.660;5.824;2023-10-13T22:49:06;127880.0;;;190.6;100.0
60719;BME280;46567;51.660;5.824;2023-10-13T22:54:06;127880.0;;;190.6;100.0
60719;BME280;46567;51.660;5.824;2023-10-13T22:59:06;127900.0;;;190.6;100.0
60719;BME280;46567;51.660;5.824;2023-10-13T23:09:06;127960.0;;;190.6;100.0
60719;BME280;46567;51.660;5.824;2023-10-13T23:14:07;127960.0;;;190.6;100.0
60719;BME280;46567;51.660;5.824;2023-10-13T23:19:06;127980.0;;;190.6;100.0
60719;BME280;46567;51.660;5.824;2023-10-13T23:24:06;128020.0;;;190.6;100.0
60719;BME280;46567;51.660;5.824;2023-10-13T23:29:06;128060.0;;;190.6;100.0
60719;BME280;46567;51.660;5.824;2023-10-13T23:34:06;128190.0;;;190.6;100.0
60719;BME280;46567;51.660;5.824;2023-10-13T23:39:06;128310.0;;;190.6;100.0
60719;BME280;46567;51.660;5.824;2023-10-13T23:44:06;128410.0;;;190.6;100.0
60719;BME280;46567;51.660;5.824;2023-10-13T23:49:06;128490.0;;;190.6;100.0
60719;BME280;46567;51.660;5.824;2023-10-13T23:54:06;128570.0;;;190.6;100.0
60719;BME280;46567;51.660;5.824;2023-10-13T23:59:06;128610.0;;;190.6;100.0
